Time;durP1;ratioP1;P1;durP2;ratioP2;P2;SDS_P1;SDS_P2;PMS_P1;PMS_P2;Temp;Humidity;BMP_temperature;BMP_pressure;BME280_temperature;BME280_humidity;BME280_pressure;Samples;Min_cycle;Max_cycle;Signal;HPM_P1;HPM_P2
2021/09/30 00:00:00;;;;;;;77.80;41.68;;;;;;;11.44;75.97;101215.47;1762753;80;25766;-63
2021/09/30 00:02:27;;;;;;;70.60;39.35;;;;;;;11.45;76.16;101218.56;1756598;80;25748;-63
2021/09/30 00:04:53;;;;;;;71.37;38.53;;;;;;;11.45;76.36;101218.09;1761051;80;25859;-63
2021/09/30 00:07:19;;;;;;;70.80;38.98;;;;;;;11.43;76.44;101215.06;1761431;80;25852;-63
2021/09/30 00:09:47;;;;;;;63.30;35.20;;;;;;;11.43;76.54;101225.80;1758326;80;27374;-63
2021/09/30 00:12:21;;;;;;;63.33;36.60;;;;;;;11.41;76.81;101229.88;1758682;80;27097;-63
2021/09/30 00:14:54;;;;;;;60.63;33.15;;;;;;;11.42;77.38;101226.73;1753642;80;26489;-63
2021/09/30 00:17:33;;;;;;;51.88;31.48;;;;;;;11.43;77.68;101233.86;1763298;80;25950;-63
2021/09/30 00:33:47;;;;;;;49.48;26.30;;;;;;;11.26;78.30;101256.82;1758829;80;26054;-64
2021/09/30 00:36:12;;;;;;;50.75;28.47;;;;;;;11.22;78.39;101261.89;1749095;80;27444;-64
2021/09/30 00:41:44;;;;;;;42.83;25.77;;;;;;;11.18;78.66;101261.59;1778511;80;26196;-64
2021/09/30 00:47:02;;;;;;;45.58;24.85;;;;;;;11.12;78.64;101262.28;1766473;80;25711;-64
2021/09/30 00:49:29;;;;;;;39.73;23.98;;;;;;;11.10;78.69;101258.30;1757930;80;27485;-66
2021/09/30 00:52:09;;;;;;;39.00;23.80;;;;;;;11.06;78.61;101264.25;1749786;80;25830;-64
2021/09/30 01:45:32;;;;;;;16.05;9.38;;;;;;;10.87;78.96;101303.37;1704474;82;25858;-64
2021/09/30 01:46:09;;;;;;;17.90;9.93;;;;;;;10.85;78.97;101311.93;1710294;81;27436;-64
2021/09/30 02:18:34;;;;;;;11.80;8.13;;;;;;;10.82;78.89;101356.28;1710039;81;25768;-63
2021/09/30 02:24:06;;;;;;;14.03;7.30;;;;;;;10.81;78.92;101355.87;1730337;81;26118;-65
2021/09/30 02:29:25;;;;;;;16.35;8.43;;;;;;;10.76;78.98;101357.83;1699215;82;25827;-65
2021/09/30 02:59:12;;;;;;;6.70;4.08;;;;;;;10.78;79.28;101373.86;1703246;82;25731;-64
2021/09/30 03:01:43;;;;;;;8.75;4.30;;;;;;;10.78;79.23;101390.83;1704465;82;25799;-63
2021/09/30 03:04:12;;;;;;;6.95;4.25;;;;;;;10.78;79.20;101389.95;1692780;83;25763;-64
2021/09/30 03:06:40;;;;;;;9.33;4.00;;;;;;;10.78;79.18;101392.63;1717622;82;29557;-64
2021/09/30 03:09:08;;;;;;;8.23;3.95;;;;;;;10.76;79.13;101392.68;1705549;82;27129;-64
2021/09/30 03:11:38;;;;;;;7.20;3.83;;;;;;;10.76;79.10;101387.31;1704923;82;25799;-64
2021/09/30 03:14:06;;;;;;;6.33;3.90;;;;;;;10.76;79.02;101398.51;1694051;82;27843;-64
2021/09/30 03:16:44;;;;;;;6.08;3.70;;;;;;;10.74;79.08;101407.48;1715008;81;25899;-64
2021/09/30 03:24:40;;;;;;;5.67;2.72;;;;;;;10.71;79.29;101411.59;1754356;79;25774;-64
2021/09/30 03:27:07;;;;;;;5.92;2.40;;;;;;;10.70;79.22;101419.23;1751728;80;26195;-64
2021/09/30 03:29:33;;;;;;;4.10;3.10;;;;;;;10.71;79.25;101424.13;1749796;80;25730;-64
2021/09/30 03:32:00;;;;;;;6.97;2.47;;;;;;;10.68;79.27;101429.13;1756950;80;27409;-65
2021/09/30 03:34:27;;;;;;;5.65;2.45;;;;;;;10.69;79.42;101439.38;1755886;79;27127;-65
2021/09/30 03:36:53;;;;;;;3.85;2.40;;;;;;;10.67;79.32;101442.11;1766804;80;25773;-65
2021/09/30 03:39:23;;;;;;;2.75;2.12;;;;;;;10.66;79.22;101440.82;1758539;80;25766;-64
2021/09/30 03:41:46;;;;;;;3.35;2.08;;;;;;;10.65;79.09;101443.09;1754456;79;26341;-62
2021/09/30 03:44:12;;;;;;;3.87;2.20;;;;;;;10.62;79.06;101446.73;1752154;80;27523;-63
2021/09/30 03:46:38;;;;;;;5.03;2.00;;;;;;;10.61;78.98;101450.80;1753362;79;25801;-63
2021/09/30 03:49:10;;;;;;;3.15;1.95;;;;;;;10.60;78.94;101447.25;1754857;80;25674;-63
2021/09/30 03:51:47;;;;;;;5.78;1.80;;;;;;;10.58;78.83;101454.92;1748397;80;25809;-63
2021/09/30 03:57:01;;;;;;;6.33;2.05;;;;;;;10.52;78.71;101457.33;1738101;80;27333;-63
2021/09/30 03:59:20;;;;;;;3.20;1.82;;;;;;;10.50;78.74;101463.20;1760894;80;26370;-63
2021/09/30 04:01:55;;;;;;;3.35;1.77;;;;;;;10.48;78.67;101462.36;1763496;80;26374;-63
2021/09/30 04:04:17;;;;;;;4.35;1.77;;;;;;;10.48;78.66;101472.20;1766434;80;26521;-64
2021/09/30 04:06:43;;;;;;;5.42;1.98;;;;;;;10.47;78.60;101463.28;1756129;80;25839;-63
2021/09/30 04:09:09;;;;;;;6.70;1.62;;;;;;;10.46;78.51;101474.93;1750944;80;27453;-63
2021/09/30 04:11:35;;;;;;;7.92;1.70;;;;;;;10.45;78.47;101477.66;1751206;80;25725;-63
2021/09/30 04:14:01;;;;;;;4.53;2.10;;;;;;;10.41;78.39;101469.70;1767800;80;25789;-65
2021/09/30 04:16:27;;;;;;;2.55;2.02;;;;;;;10.39;78.35;101476.06;1766773;80;27887;-65
2021/09/30 04:18:53;;;;;;;5.55;2.22;;;;;;;10.38;78.28;101483.69;1763562;80;25742;-65
2021/09/30 04:21:19;;;;;;;2.80;1.72;;;;;;;10.35;78.22;101480.64;1757166;80;27515;-63
2021/09/30 04:23:45;;;;;;;3.02;1.60;;;;;;;10.33;78.19;101485.63;1751405;79;25777;-62
2021/09/30 04:26:11;;;;;;;3.72;1.62;;;;;;;10.31;78.16;101479.44;1764622;80;25779;-63
2021/09/30 04:28:37;;;;;;;4.12;1.75;;;;;;;10.28;78.12;101489.78;1749901;80;26172;-63
2021/09/30 04:31:03;;;;;;;5.15;1.67;;;;;;;10.26;78.07;101498.78;1752779;80;25942;-63
2021/09/30 04:33:29;;;;;;;4.28;1.82;;;;;;;10.23;78.02;101502.42;1751941;80;27411;-63
2021/09/30 04:35:55;;;;;;;5.40;2.12;;;;;;;10.17;77.93;101502.56;1753707;80;25732;-63
2021/09/30 04:38:21;;;;;;;2.15;1.67;;;;;;;10.12;77.91;101503.16;1748344;80;25773;-63
2021/09/30 04:40:47;;;;;;;5.75;2.33;;;;;;;10.09;77.88;101503.23;1759869;80;25789;-65
2021/09/30 04:43:13;;;;;;;4.28;1.85;;;;;;;10.05;77.84;101505.13;1760036;80;25702;-66
2021/09/30 04:45:38;;;;;;;7.08;1.62;;;;;;;10.01;77.81;101511.48;1750072;80;27459;-66
2021/09/30 04:48:04;;;;;;;2.08;1.60;;;;;;;9.98;77.79;101508.89;1766299;80;25682;-65
2021/09/30 04:50:30;;;;;;;4.30;1.47;;;;;;;9.96;77.76;101513.87;1754151;80;26432;-66
2021/09/30 04:53:00;;;;;;;5.62;2.08;;;;;;;9.89;77.74;101513.16;1764540;80;25864;-65
2021/09/30 04:55:24;;;;;;;4.03;1.82;;;;;;;9.91;77.70;101519.34;1757241;80;25690;-66
2021/09/30 04:57:50;;;;;;;6.25;2.08;;;;;;;9.89;77.62;101521.19;1770968;80;29465;-66
2021/09/30 05:00:17;;;;;;;1.77;1.50;;;;;;;9.85;77.58;101526.20;1759942;79;25885;-66
2021/09/30 05:02:46;;;;;;;2.72;1.92;;;;;;;9.83;77.49;101529.84;1756645;80;25687;-64
2021/09/30 05:05:12;;;;;;;6.55;1.62;;;;;;;9.79;77.47;101540.20;1750388;80;25785;-65
2021/09/30 05:07:37;;;;;;;1.47;1.37;;;;;;;9.76;77.42;101537.16;1752265;80;25690;-64
2021/09/30 05:10:06;;;;;;;7.75;1.98;;;;;;;9.74;77.36;101531.84;1770806;79;27508;-64
2021/09/30 05:12:32;;;;;;;3.90;2.02;;;;;;;9.72;77.35;101532.80;1760421;80;25799;-66
2021/09/30 05:14:58;;;;;;;4.08;2.42;;;;;;;9.70;77.32;101530.62;1743226;80;25830;-66
2021/09/30 05:17:24;;;;;;;4.62;2.17;;;;;;;9.68;77.25;101534.67;1751870;80;25967;-66
2021/09/30 05:19:50;;;;;;;2.80;1.90;;;;;;;9.68;77.24;101539.14;1746759;80;25775;-64
2021/09/30 05:22:15;;;;;;;3.70;1.87;;;;;;;9.66;77.22;101535.17;1709684;81;27411;-65
2021/09/30 05:24:41;;;;;;;7.08;2.95;;;;;;;9.67;77.21;101542.73;1676140;83;25824;-65
2021/09/30 05:27:07;;;;;;;9.50;3.02;;;;;;;9.67;77.22;101536.92;1723930;81;25379;-66
2021/09/30 05:29:33;;;;;;;7.95;2.47;;;;;;;9.66;77.11;101537.84;1728301;81;28005;-66
2021/09/30 05:31:59;;;;;;;7.70;2.30;;;;;;;9.67;77.05;101536.05;1718292;81;25773;-66
2021/09/30 05:34:24;;;;;;;5.28;2.08;;;;;;;9.64;77.01;101539.68;1722162;81;29624;-66
2021/09/30 05:36:50;;;;;;;3.25;2.10;;;;;;;9.63;76.98;101547.30;1736448;81;25789;-66
2021/09/30 05:39:16;;;;;;;6.53;2.08;;;;;;;9.63;76.97;101551.31;1735768;81;26051;-66
2021/09/30 05:41:44;;;;;;;2.90;2.30;;;;;;;9.62;76.95;101547.33;1712787;81;26462;-66
2021/09/30 05:44:10;;;;;;;5.87;2.22;;;;;;;9.61;76.93;101552.27;1711616;81;25735;-66
2021/09/30 05:46:43;;;;;;;7.05;2.33;;;;;;;9.60;76.86;101547.83;1721776;81;29485;-66
2021/09/30 05:49:05;;;;;;;6.03;2.22;;;;;;;9.58;76.86;101547.86;1723779;82;27153;-66
2021/09/30 05:51:30;;;;;;;12.45;3.17;;;;;;;9.58;76.84;101546.53;1712233;82;26475;-66
2021/09/30 05:53:56;;;;;;;8.10;2.42;;;;;;;9.57;76.81;101552.80;1713306;82;26440;-66
2021/09/30 05:56:22;;;;;;;10.32;3.55;;;;;;;9.56;76.74;101555.05;1714491;81;25867;-66
2021/09/30 05:58:48;;;;;;;6.80;3.60;;;;;;;9.52;76.74;101558.72;1716231;81;27542;-66
2021/09/30 06:08:59;;;;;;;7.70;4.22;;;;;;;9.50;76.73;101563.23;1717984;81;28880;-65
2021/09/30 06:12:11;;;;;;;12.25;3.47;;;;;;;9.54;76.76;101562.70;1692032;83;29506;-65
2021/09/30 06:14:35;;;;;;;7.92;2.70;;;;;;;9.54;76.75;101566.71;1690093;83;26355;-65
2021/09/30 06:17:03;;;;;;;5.78;2.70;;;;;;;9.55;76.73;101581.86;1688474;82;26452;-65
2021/09/30 06:19:29;;;;;;;7.15;2.50;;;;;;;9.55;76.70;101574.70;1695394;82;27717;-65
2021/09/30 06:21:55;;;;;;;5.92;2.27;;;;;;;9.57;76.66;101571.53;1717717;81;25534;-64
2021/09/30 06:24:23;;;;;;;10.38;3.10;;;;;;;9.61;76.69;101579.03;1690124;82;27511;-65
2021/09/30 06:26:50;;;;;;;2.85;2.00;;;;;;;9.64;76.66;101586.98;1692681;82;27160;-65
2021/09/30 06:29:17;;;;;;;7.62;2.62;;;;;;;9.66;76.65;101583.35;1691636;82;26357;-65
2021/09/30 06:31:43;;;;;;;7.20;2.62;;;;;;;9.71;76.65;101588.59;1699999;82;26295;-64
2021/09/30 06:34:09;;;;;;;7.53;2.70;;;;;;;9.75;76.63;101587.59;1694103;82;25890;-64
2021/09/30 06:36:36;;;;;;;7.12;2.40;;;;;;;9.81;76.60;101586.56;1688784;82;27508;-67
2021/09/30 06:39:03;;;;;;;5.15;2.67;;;;;;;9.85;76.46;101585.11;1695342;82;27241;-64
2021/09/30 06:41:29;;;;;;;7.90;3.10;;;;;;;9.86;76.49;101585.53;1700376;82;25701;-66
2021/09/30 06:43:54;;;;;;;9.55;2.52;;;;;;;9.94;76.43;101595.59;1737528;81;25799;-64
2021/09/30 06:46:20;;;;;;;6.25;2.47;;;;;;;9.98;76.36;101597.73;1694172;82;25684;-64
2021/09/30 06:48:46;;;;;;;6.62;2.20;;;;;;;10.02;76.23;101599.41;1722928;81;29570;-65
2021/09/30 06:51:12;;;;;;;10.55;2.60;;;;;;;10.06;76.21;101603.77;1712510;81;26296;-64
2021/09/30 06:53:38;;;;;;;4.03;2.25;;;;;;;10.10;76.11;101612.14;1699202;82;25793;-64
2021/09/30 06:56:11;;;;;;;4.75;2.35;;;;;;;10.13;76.05;101610.73;1691682;82;25789;-66
2021/09/30 06:58:35;;;;;;;5.22;2.62;;;;;;;10.17;75.92;101619.56;1689697;82;25741;-64
2021/09/30 07:01:01;;;;;;;8.33;2.42;;;;;;;10.20;75.79;101615.50;1689896;82;27483;-65
2021/09/30 07:03:28;;;;;;;12.95;2.60;;;;;;;10.22;75.71;101617.22;1693579;82;26490;-64
2021/09/30 07:05:55;;;;;;;4.67;1.85;;;;;;;10.26;75.64;101628.27;1692519;82;25934;-64
2021/09/30 07:08:21;;;;;;;9.78;2.20;;;;;;;10.30;75.57;101627.73;1696162;82;26364;-64
2021/09/30 07:10:48;;;;;;;6.90;2.10;;;;;;;10.32;75.46;101626.77;1731850;81;25993;-64
2021/09/30 07:13:14;;;;;;;5.45;1.98;;;;;;;10.36;75.32;101631.13;1733349;81;28420;-63
2021/09/30 07:15:40;;;;;;;3.37;2.02;;;;;;;10.38;75.21;101632.43;1720792;81;25841;-64
2021/09/30 07:18:18;;;;;;;6.47;1.98;;;;;;;10.41;75.10;101632.31;1720231;81;26068;-64
2021/09/30 07:20:46;;;;;;;3.75;1.77;;;;;;;10.42;74.96;101636.75;1710839;81;26324;-64
2021/09/30 07:23:12;;;;;;;7.92;1.87;;;;;;;10.48;74.91;101642.41;1723420;81;25783;-63
2021/09/30 07:25:38;;;;;;;2.75;1.98;;;;;;;10.51;74.89;101636.50;1744566;80;27862;-62
2021/09/30 07:28:05;;;;;;;4.45;1.82;;;;;;;10.56;74.67;101657.83;1715160;81;25792;-62
2021/09/30 07:30:32;;;;;;;5.92;1.92;;;;;;;10.59;74.42;101655.06;1718851;81;26320;-63
2021/09/30 07:32:59;;;;;;;7.22;2.40;;;;;;;10.54;74.36;101635.55;1754166;79;25819;-64
2021/09/30 07:35:26;;;;;;;5.47;2.20;;;;;;;10.62;74.32;101639.77;1762152;80;25743;-65
2021/09/30 07:37:54;;;;;;;9.05;2.33;;;;;;;10.66;74.17;101649.48;1768604;80;27774;-65
2021/09/30 07:40:21;;;;;;;8.75;2.12;;;;;;;10.70;74.16;101648.48;1758113;80;26477;-66
2021/09/30 07:42:48;;;;;;;7.15;2.58;;;;;;;10.77;74.02;101654.55;1755129;80;25678;-65
2021/09/30 07:45:14;;;;;;;5.28;2.02;;;;;;;10.84;74.00;101652.58;1761718;80;25869;-64
2021/09/30 07:47:40;;;;;;;6.83;2.15;;;;;;;10.86;73.80;101648.93;1767932;80;25768;-66
2021/09/30 07:50:08;;;;;;;4.45;1.90;;;;;;;10.89;73.66;101662.25;1756946;80;29490;-65
2021/09/30 07:52:34;;;;;;;3.27;1.70;;;;;;;10.89;73.51;101652.86;1755998;80;25737;-63
2021/09/30 07:55:01;;;;;;;6.17;1.87;;;;;;;10.89;73.22;101668.08;1752143;80;25940;-65
2021/09/30 07:57:29;;;;;;;7.20;2.37;;;;;;;10.89;72.04;101657.35;1760125;80;25818;-64
2021/09/30 07:59:55;;;;;;;7.50;2.60;;;;;;;10.94;73.17;101659.44;1765184;80;25807;-64
2021/09/30 08:02:21;;;;;;;9.38;2.50;;;;;;;11.01;73.24;101660.56;1773688;80;27374;-64
2021/09/30 08:04:47;;;;;;;6.53;2.02;;;;;;;11.09;73.12;101669.73;1760413;80;25703;-64
2021/09/30 08:07:13;;;;;;;6.40;1.80;;;;;;;11.09;72.77;101670.19;1759074;80;25768;-63
2021/09/30 08:09:39;;;;;;;5.95;2.30;;;;;;;11.06;72.62;101671.16;1754961;80;25745;-63
2021/09/30 08:12:07;;;;;;;9.83;2.15;;;;;;;11.08;72.71;101666.63;1759559;80;26541;-64
2021/09/30 08:14:34;;;;;;;5.75;2.10;;;;;;;11.13;72.53;101670.05;1753634;80;27524;-62
2021/09/30 08:17:00;;;;;;;6.87;2.10;;;;;;;11.15;72.27;101661.96;1751460;80;26263;-63
2021/09/30 08:19:26;;;;;;;5.65;1.85;;;;;;;11.15;72.30;101660.16;1749790;80;25785;-63
2021/09/30 08:21:53;;;;;;;5.40;2.08;;;;;;;11.20;72.34;101668.95;1771369;80;25926;-66
2021/09/30 08:24:20;;;;;;;8.38;1.80;;;;;;;11.26;72.23;101670.11;1754076;80;25818;-63
2021/09/30 08:26:48;;;;;;;3.00;1.85;;;;;;;11.28;72.16;101662.89;1780028;79;27380;-67
2021/09/30 08:29:18;;;;;;;9.88;1.95;;;;;;;11.30;71.93;101669.09;1776599;79;25735;-64
2021/09/30 08:31:45;;;;;;;5.80;2.05;;;;;;;11.34;71.82;101674.79;1775180;79;26346;-64
2021/09/30 08:34:12;;;;;;;3.75;1.82;;;;;;;11.34;71.59;101679.28;1766801;79;25894;-64
2021/09/30 08:36:38;;;;;;;10.78;2.67;;;;;;;11.37;71.48;101673.81;1762783;79;25688;-64
2021/09/30 08:39:06;;;;;;;3.10;1.57;;;;;;;11.45;71.49;101682.98;1768675;79;29513;-65
2021/09/30 08:41:35;;;;;;;4.10;2.35;;;;;;;11.49;71.28;101676.59;1762776;79;25960;-64
2021/09/30 08:44:01;;;;;;;6.05;2.55;;;;;;;11.56;71.12;101670.98;1765021;79;25881;-65
2021/09/30 08:46:28;;;;;;;6.75;2.45;;;;;;;11.61;70.96;101686.95;1771883;79;26459;-64
2021/09/30 08:48:54;;;;;;;10.10;2.35;;;;;;;11.65;71.02;101686.81;1770380;79;25739;-64
2021/09/30 08:51:20;;;;;;;6.45;2.00;;;;;;;11.68;70.83;101674.63;1739794;80;27450;-65
2021/09/30 08:53:46;;;;;;;5.08;2.02;;;;;;;11.74;70.56;101677.59;1781400;79;25800;-65
2021/09/30 08:56:12;;;;;;;6.83;2.22;;;;;;;11.80;70.49;101685.48;1782682;79;25701;-65
2021/09/30 08:58:39;;;;;;;3.95;1.65;;;;;;;11.85;70.57;101683.53;1769917;79;25769;-64
2021/09/30 09:01:07;;;;;;;3.58;2.20;;;;;;;11.87;70.03;101684.36;1772043;79;25743;-64
2021/09/30 09:03:49;;;;;;;7.47;2.45;;;;;;;11.86;70.14;101687.09;1769190;79;29521;-64
2021/09/30 09:06:32;;;;;;;9.15;2.50;;;;;;;11.85;70.26;101684.87;1766772;79;25777;-65
2021/09/30 09:09:25;;;;;;;9.15;2.40;;;;;;;11.92;70.30;101685.09;1753000;79;26477;-66
2021/09/30 09:11:54;;;;;;;9.25;2.40;;;;;;;12.03;70.17;101688.31;1761197;79;26078;-66
2021/09/30 09:14:26;;;;;;;4.85;2.40;;;;;;;12.08;69.96;101683.25;1768033;79;25663;-61
2021/09/30 09:17:02;;;;;;;9.78;1.82;;;;;;;12.12;69.93;101688.94;1781365;79;27406;-62
2021/09/30 09:19:44;;;;;;;5.20;2.20;;;;;;;12.12;69.79;101687.59;1758966;79;25918;-62
2021/09/30 09:22:18;;;;;;;9.00;2.08;;;;;;;12.14;69.64;101685.73;1766268;79;25749;-62
2021/09/30 09:24:58;;;;;;;13.55;2.40;;;;;;;12.17;69.73;101686.98;1758004;79;25911;-62
2021/09/30 09:27:44;;;;;;;7.33;1.67;;;;;;;12.22;68.96;101678.30;1766745;79;25773;-62
2021/09/30 09:30:35;;;;;;;4.97;2.17;;;;;;;12.32;69.41;101682.42;1765483;80;27420;-63
2021/09/30 09:33:21;;;;;;;6.60;1.90;;;;;;;12.42;69.12;101683.88;1755066;80;26281;-62
2021/09/30 09:36:04;;;;;;;5.75;1.60;;;;;;;12.51;69.04;101678.17;1774261;80;25826;-62
2021/09/30 09:38:53;;;;;;;8.83;2.12;;;;;;;12.57;69.14;101672.58;1754407;80;27938;-62
2021/09/30 09:41:35;;;;;;;8.40;2.42;;;;;;;12.64;69.11;101675.47;1753116;80;41990;-62
2021/09/30 09:44:01;;;;;;;8.63;2.17;;;;;;;12.71;69.01;101667.17;1755067;80;27423;-62
2021/09/30 09:46:35;;;;;;;5.62;1.80;;;;;;;12.85;69.02;101685.05;1754058;80;25913;-64
2021/09/30 09:49:12;;;;;;;5.08;2.42;;;;;;;12.91;68.80;101668.21;1756791;80;25866;-62
2021/09/30 09:51:51;;;;;;;4.50;1.82;;;;;;;13.06;68.73;101676.16;1762425;80;26120;-63
2021/09/30 09:54:17;;;;;;;10.68;1.70;;;;;;;13.18;68.48;101679.77;1757072;80;26097;-63
2021/09/30 09:56:45;;;;;;;5.87;2.15;;;;;;;13.26;68.32;101681.70;1758584;80;29622;-62
2021/09/30 09:59:11;;;;;;;7.58;1.92;;;;;;;13.33;67.89;101678.31;1760609;80;26358;-64
2021/09/30 10:01:44;;;;;;;7.60;2.20;;;;;;;13.38;67.36;101677.66;1752512;80;25757;-62
2021/09/30 10:04:12;;;;;;;5.95;2.08;;;;;;;13.40;67.54;101679.83;1754819;80;25282;-63
2021/09/30 10:06:39;;;;;;;6.72;1.92;;;;;;;13.51;67.24;101687.49;1759019;80;25975;-63
2021/09/30 10:09:08;;;;;;;9.10;2.17;;;;;;;13.61;66.80;101684.37;1763185;80;29438;-62
2021/09/30 10:11:36;;;;;;;3.67;1.65;;;;;;;13.71;66.92;101693.45;1762168;80;26271;-65
2021/09/30 10:14:06;;;;;;;5.80;1.57;;;;;;;13.75;66.81;101691.92;1756002;80;26438;-62
2021/09/30 10:16:35;;;;;;;8.23;1.75;;;;;;;13.72;66.42;101693.86;1767427;80;26150;-65
2021/09/30 10:19:07;;;;;;;4.40;1.40;;;;;;;13.64;65.73;101693.69;1752412;80;25794;-66
2021/09/30 10:21:37;;;;;;;8.68;1.65;;;;;;;13.59;65.66;101699.73;1752852;80;27487;-65
2021/09/30 10:24:07;;;;;;;5.37;1.40;;;;;;;13.62;65.78;101705.47;1761212;80;25804;-66
2021/09/30 10:26:44;;;;;;;7.90;1.70;;;;;;;13.73;65.94;101695.61;1735530;80;25860;-66
2021/09/30 10:29:07;;;;;;;5.87;1.65;;;;;;;13.88;66.09;101701.73;1756833;80;26494;-67
2021/09/30 10:31:37;;;;;;;9.43;2.08;;;;;;;14.00;66.01;101690.93;1750452;80;25737;-66
2021/09/30 10:34:07;;;;;;;7.40;1.50;;;;;;;14.16;65.96;101698.80;1758674;80;27353;-66
2021/09/30 10:36:45;;;;;;;7.85;1.60;;;;;;;14.26;65.65;101694.77;1757695;80;25775;-67
2021/09/30 10:39:22;;;;;;;9.78;1.60;;;;;;;14.36;65.42;101699.31;1766274;80;26126;-66
2021/09/30 10:42:02;;;;;;;8.68;1.70;;;;;;;14.40;65.18;101691.02;1757290;80;25842;-67
2021/09/30 10:44:36;;;;;;;5.10;1.30;;;;;;;14.49;65.29;101697.41;1763993;80;25809;-67
2021/09/30 10:47:07;;;;;;;10.58;1.22;;;;;;;14.54;64.59;101702.61;1776138;80;27388;-67
2021/09/30 10:49:52;;;;;;;5.87;1.85;;;;;;;14.64;64.80;101693.17;1752779;80;30508;-67
2021/09/30 10:52:37;;;;;;;9.28;1.50;;;;;;;14.87;64.49;101695.73;1755263;80;26180;-65
2021/09/30 10:55:20;;;;;;;7.85;1.52;;;;;;;15.10;63.89;101694.70;1754499;80;25842;-64
2021/09/30 10:57:49;;;;;;;5.75;1.02;;;;;;;15.18;62.41;101714.61;1752474;80;25721;-65
2021/09/30 11:00:23;;;;;;;7.70;0.90;;;;;;;15.04;62.56;101696.33;1770333;79;27491;-66
2021/09/30 11:03:09;;;;;;;14.33;2.40;;;;;;;15.06;62.61;101703.89;1762400;79;25772;-65
2021/09/30 11:05:41;;;;;;;11.85;1.55;;;;;;;15.17;62.67;101696.66;1763637;79;25799;-66
2021/09/30 11:08:26;;;;;;;8.25;0.95;;;;;;;15.28;62.65;101699.73;1777421;79;26467;-65
2021/09/30 11:11:08;;;;;;;5.50;1.65;;;;;;;15.30;62.04;101697.84;1773823;79;25811;-65
2021/09/30 11:13:49;;;;;;;4.17;0.95;;;;;;;15.21;61.64;101698.27;1767413;79;26655;-64
2021/09/30 11:16:20;;;;;;;12.98;1.65;;;;;;;15.17;61.61;101706.98;1756270;79;25682;-65
2021/09/30 11:18:56;;;;;;;5.80;1.00;;;;;;;15.12;61.17;101700.91;1760785;79;25742;-66
2021/09/30 11:21:34;;;;;;;6.47;1.37;;;;;;;15.00;60.76;101699.23;1764598;79;25851;-65
2021/09/30 11:24:08;;;;;;;8.23;1.80;;;;;;;14.98;60.21;101695.73;1776686;79;25816;-65
2021/09/30 11:26:51;;;;;;;8.88;1.47;;;;;;;15.03;59.45;101696.41;1769811;79;27450;-66
2021/09/30 11:29:27;;;;;;;6.78;1.02;;;;;;;15.03;59.85;101697.28;1764670;79;26466;-65
2021/09/30 11:32:02;;;;;;;4.83;1.07;;;;;;;15.03;59.40;101696.41;1759455;79;25773;-65
2021/09/30 11:34:42;;;;;;;6.95;1.42;;;;;;;14.96;58.97;101706.60;1760996;79;25869;-64
2021/09/30 11:37:36;;;;;;;5.30;1.07;;;;;;;14.88;58.58;101710.11;1764457;79;25743;-65
2021/09/30 11:40:11;;;;;;;9.10;0.90;;;;;;;14.85;58.43;101696.75;1751656;79;27419;-65
2021/09/30 11:42:45;;;;;;;6.12;1.55;;;;;;;14.88;57.68;101704.72;1770411;79;26472;-64
2021/09/30 11:45:29;;;;;;;18.62;1.12;;;;;;;14.99;58.15;101698.36;1766480;79;25819;-65
2021/09/30 11:48:06;;;;;;;7.30;1.40;;;;;;;15.16;58.37;101699.83;1761134;79;25882;-65
2021/09/30 11:50:32;;;;;;;6.62;1.32;;;;;;;15.27;57.93;101695.28;1757619;79;26208;-65
2021/09/30 11:53:06;;;;;;;5.10;1.02;;;;;;;15.51;58.09;101702.25;1766154;79;27481;-65
2021/09/30 11:55:40;;;;;;;9.13;1.10;;;;;;;15.79;57.71;101706.34;1774631;79;25773;-65
2021/09/30 11:58:04;;;;;;;9.20;1.67;;;;;;;16.06;58.06;101701.41;1687593;83;25791;-65
2021/09/30 12:00:32;;;;;;;4.33;0.98;;;;;;;16.46;57.63;101693.05;1724478;81;25773;-64
2021/09/30 12:03:03;;;;;;;4.92;1.47;;;;;;;16.60;56.57;101696.88;1689593;83;25880;-64
2021/09/30 12:05:34;;;;;;;3.80;0.88;;;;;;;16.56;56.77;101703.80;1686091;83;29640;-64
2021/09/30 12:08:03;;;;;;;4.50;1.07;;;;;;;16.65;56.77;101701.61;1714860;82;25809;-64
2021/09/30 12:10:32;;;;;;;5.47;1.15;;;;;;;16.72;56.33;101701.70;1711273;83;25779;-64
2021/09/30 12:12:59;;;;;;;3.90;0.93;;;;;;;16.82;55.93;101701.13;1696204;83;25693;-64
2021/09/30 12:15:25;;;;;;;8.65;1.30;;;;;;;17.10;56.23;101696.95;1722384;82;25764;-65
2021/09/30 12:17:52;;;;;;;17.23;1.92;;;;;;;17.22;55.57;101711.20;1719079;81;28259;-65
2021/09/30 12:20:20;;;;;;;5.15;0.72;;;;;;;16.80;54.33;101708.94;1701560;82;26514;-65
2021/09/30 12:22:53;;;;;;;16.30;1.95;;;;;;;16.41;53.84;101711.36;1706416;82;26242;-65
2021/09/30 12:25:24;;;;;;;13.53;1.15;;;;;;;16.18;53.77;101718.39;1749138;80;26179;-65
2021/09/30 12:27:54;;;;;;;;;;;;;;;15.94;53.89;101718.24;1764480;80;25707;-65
2021/09/30 12:30:26;;;;;;;10.38;3.72;;;;;;;15.71;53.37;101716.64;1740854;80;28156;-65
2021/09/30 12:33:01;;;;;;;6.00;0.90;;;;;;;15.59;54.00;101705.97;1750558;80;25879;-65
2021/09/30 12:35:43;;;;;;;6.30;1.40;;;;;;;15.68;54.19;101712.27;1676291;84;26560;-65
2021/09/30 12:38:20;;;;;;;9.38;1.45;;;;;;;15.97;54.45;101704.58;1699592;82;25824;-65
2021/09/30 12:40:51;;;;;;;2.20;0.70;;;;;;;16.49;55.03;101701.49;1758793;80;25832;-65
2021/09/30 12:43:27;;;;;;;5.30;1.05;;;;;;;16.94;54.06;101699.61;1758292;80;27497;-66
2021/09/30 12:46:05;;;;;;;4.15;0.70;;;;;;;17.14;53.49;101710.25;1746801;79;28361;-65
2021/09/30 12:48:32;;;;;;;6.78;1.07;;;;;;;17.30;52.29;101697.23;1751900;80;25867;-66
2021/09/30 12:51:04;;;;;;;7.42;1.35;;;;;;;17.50;52.62;101695.66;1754288;80;25733;-66
2021/09/30 12:53:30;;;;;;;;;;;;;;;17.92;52.30;101696.95;1756113;80;25818;-66
2021/09/30 12:56:06;;;;;;;5.90;0.90;;;;;;;18.25;51.54;101692.25;1729518;80;27784;-67
2021/09/30 12:58:36;;;;;;;12.47;1.20;;;;;;;18.52;51.28;101707.86;1729738;80;26368;-66
2021/09/30 13:01:33;;;;;;;8.23;1.87;;;;;;;18.62;50.04;101684.66;1734106;80;25678;-65
2021/09/30 13:04:24;;;;;;;5.72;0.78;;;;;;;18.81;50.86;101686.16;1753898;80;25797;-65
2021/09/30 13:07:06;;;;;;;5.20;1.07;;;;;;;19.40;49.28;101683.40;1755550;80;25891;-64
2021/09/30 13:09:39;;;;;;;7.60;0.95;;;;;;;19.35;49.64;101659.71;1734469;80;27451;-66
2021/09/30 13:12:15;;;;;;;8.48;1.00;;;;;;;19.86;49.25;101677.73;1745331;80;25769;-65
2021/09/30 13:14:53;;;;;;;7.47;1.00;;;;;;;19.99;47.93;101681.39;1737080;80;26560;-65
2021/09/30 13:17:19;;;;;;;6.35;0.85;;;;;;;19.73;46.54;101680.39;1729268;80;25789;-65
2021/09/30 13:19:58;;;;;;;2.53;0.80;;;;;;;19.85;46.89;101682.30;1750505;80;26675;-65
2021/09/30 13:22:34;;;;;;;9.55;1.55;;;;;;;19.95;45.58;101678.48;1737597;80;27419;-64
2021/09/30 13:25:16;;;;;;;2.87;0.90;;;;;;;20.07;46.01;101681.76;1746374;80;25793;-64
2021/09/30 13:27:44;;;;;;;5.70;1.05;;;;;;;20.50;44.71;101678.89;1733645;80;25927;-64
2021/09/30 13:30:19;;;;;;;6.65;0.95;;;;;;;20.61;43.74;101675.81;1731326;80;25818;-65
2021/09/30 13:32:46;;;;;;;17.30;1.45;;;;;;;20.61;44.46;101674.95;1700694;82;26330;-65
2021/09/30 13:35:14;;;;;;;4.87;1.07;;;;;;;20.43;43.77;101690.70;1697863;82;27471;-65
2021/09/30 13:37:41;;;;;;;6.67;1.42;;;;;;;19.60;41.71;101683.03;1698571;82;25760;-65
2021/09/30 13:40:09;;;;;;;7.78;0.90;;;;;;;18.75;42.36;101687.02;1696362;82;26258;-67
2021/09/30 13:42:38;;;;;;;5.37;0.98;;;;;;;18.19;42.82;101695.34;1690233;82;26316;-65
2021/09/30 13:45:09;;;;;;;4.87;0.90;;;;;;;18.36;43.71;101694.33;1698202;82;25715;-64
2021/09/30 13:47:36;;;;;;;4.12;1.00;;;;;;;18.80;43.75;101684.90;1702894;82;28072;-64
2021/09/30 13:50:06;;;;;;;8.78;1.07;;;;;;;19.06;44.19;101680.58;1702942;82;25773;-65
2021/09/30 13:52:31;;;;;;;3.25;1.07;;;;;;;19.66;44.19;101688.56;1696199;82;28187;-64
2021/09/30 13:54:58;;;;;;;11.48;1.17;;;;;;;19.79;43.83;101692.23;1689684;82;27988;-65
2021/09/30 13:57:24;;;;;;;14.73;1.55;;;;;;;19.65;42.75;101682.73;1692864;82;26689;-64
2021/09/30 13:59:49;;;;;;;7.62;1.35;;;;;;;19.61;43.45;101682.05;1671157;83;27449;-64
2021/09/30 14:02:16;;;;;;;4.75;1.07;;;;;;;19.83;43.06;101686.10;1748035;80;25671;-63
2021/09/30 14:04:41;;;;;;;10.53;0.80;;;;;;;19.82;42.72;101688.44;1740745;80;25774;-65